Time;durP1;ratioP1;P1;durP2;ratioP2;P2;SDS_P1;SDS_P2;PMS_P1;PMS_P2;Temp;Humidity;BMP_temperature;BMP_pressure;BME280_temperature;BME280_humidity;BME280_pressure;Samples;Min_cycle;Max_cycle;Signal;HPM_P1;HPM_P2
2021/08/18 00:00:52;;;;;;;33.10;12.20;;;;;;;17.01;100.00;101538.75;5085811;28;20127;-61
2021/08/18 00:03:19;;;;;;;33.40;12.55;;;;;;;17.34;98.85;101539.44;5085965;28;20154;-62
2021/08/18 00:05:45;;;;;;;28.67;10.93;;;;;;;16.90;100.00;101539.13;5086984;28;20055;-60
2021/08/18 00:08:12;;;;;;;33.22;12.25;;;;;;;16.69;100.00;101542.28;5088185;27;20770;-62
2021/08/18 00:10:41;;;;;;;33.53;13.05;;;;;;;16.65;100.00;101548.94;5084063;28;20167;-61
2021/08/18 00:13:11;;;;;;;28.08;11.20;;;;;;;16.59;100.00;101548.59;5091970;28;20052;-62
2021/08/18 00:15:39;;;;;;;29.70;11.73;;;;;;;16.57;100.00;101542.66;5089544;28;20494;-62
2021/08/18 00:18:06;;;;;;;;;;;;;;;16.57;100.00;101537.34;5100585;28;20532;-62
2021/08/18 00:20:33;;;;;;;23.90;10.80;;;;;;;16.85;100.00;101539.63;5082511;28;20340;-62
2021/08/18 00:22:59;;;;;;;29.63;12.10;;;;;;;16.70;100.00;101533.34;5095124;28;20067;-62
2021/08/18 00:25:26;;;;;;;27.90;11.27;;;;;;;16.49;100.00;101539.19;5079654;27;20179;-61
2021/08/18 00:27:54;;;;;;;29.45;12.02;;;;;;;16.45;100.00;101538.69;5096178;27;20139;-62
2021/08/18 00:30:20;;;;;;;32.10;12.20;;;;;;;16.55;100.00;101539.34;5092805;28;20499;-62
2021/08/18 00:32:47;;;;;;;26.13;11.10;;;;;;;16.64;100.00;101544.63;5090599;28;20147;-62
2021/08/18 00:35:14;;;;;;;27.10;11.30;;;;;;;16.59;100.00;101539.84;5090439;28;20044;-62
2021/08/18 00:37:41;;;;;;;31.20;12.40;;;;;;;16.84;100.00;101534.50;5080759;28;20246;-62
2021/08/18 00:40:08;;;;;;;38.53;13.20;;;;;;;16.51;100.00;101538.03;5091541;28;20519;-62
2021/08/18 00:42:34;;;;;;;32.08;11.48;;;;;;;16.55;100.00;101531.41;5090575;28;20186;-62
2021/08/18 00:45:01;;;;;;;32.65;11.30;;;;;;;17.04;100.00;101538.41;5097552;27;20158;-62
2021/08/18 00:47:27;;;;;;;24.85;10.20;;;;;;;16.52;100.00;101536.19;5086095;28;20105;-61
2021/08/18 00:49:54;;;;;;;30.55;12.73;;;;;;;16.72;100.00;101531.34;5095229;28;20079;-62
2021/08/18 00:52:20;;;;;;;28.52;11.27;;;;;;;16.70;100.00;101528.03;5088703;28;20484;-62
2021/08/18 00:54:49;;;;;;;;;;;;;;;16.58;100.00;101531.06;5083964;28;20147;-62
2021/08/18 00:57:15;;;;;;;26.88;10.80;;;;;;;16.64;100.00;101526.06;5094351;28;19986;-62
2021/08/18 00:59:42;;;;;;;31.30;12.48;;;;;;;16.38;100.00;101529.75;5087504;28;20054;-62
2021/08/18 01:02:08;;;;;;;27.90;10.23;;;;;;;16.61;100.00;101535.19;5095696;28;20078;-61
2021/08/18 01:04:35;;;;;;;30.60;11.30;;;;;;;16.90;100.00;101531.19;5089906;28;20048;-61
2021/08/18 01:07:02;;;;;;;27.42;11.38;;;;;;;16.63;100.00;101519.13;5096008;28;20082;-61
2021/08/18 01:09:29;;;;;;;32.45;11.52;;;;;;;16.36;100.00;101529.91;5096354;28;20171;-62
2021/08/18 01:11:55;;;;;;;33.30;11.70;;;;;;;16.39;100.00;101524.31;5085506;27;20143;-61
2021/08/18 01:14:22;;;;;;;28.63;10.82;;;;;;;16.36;100.00;101521.97;5095500;28;20250;-62
2021/08/18 01:16:49;;;;;;;35.05;11.40;;;;;;;16.61;100.00;101528.06;5081530;28;20140;-62
2021/08/18 01:19:18;;;;;;;29.45;10.90;;;;;;;16.92;100.00;101531.84;5091011;28;20067;-60
2021/08/18 01:21:48;;;;;;;29.00;11.05;;;;;;;16.71;100.00;101530.53;5075411;28;20130;-62
2021/08/18 01:24:18;;;;;;;34.45;11.48;;;;;;;17.10;100.00;101531.59;5095111;28;20075;-60
2021/08/18 01:26:45;;;;;;;33.28;11.38;;;;;;;16.54;100.00;101535.06;5092420;27;20135;-62
2021/08/18 01:29:12;;;;;;;37.03;12.10;;;;;;;16.58;100.00;101536.38;5090538;28;20184;-62
2021/08/18 01:31:41;;;;;;;23.90;9.63;;;;;;;16.68;100.00;101540.63;5088685;28;20178;-60
2021/08/18 01:34:07;;;;;;;29.15;11.90;;;;;;;16.44;100.00;101536.22;5083618;28;20135;-62
2021/08/18 01:36:35;;;;;;;34.90;11.65;;;;;;;16.52;100.00;101533.53;5090722;28;20094;-60
2021/08/18 01:39:03;;;;;;;32.15;11.65;;;;;;;16.44;100.00;101541.50;5092062;27;20143;-59
2021/08/18 01:41:30;;;;;;;33.28;13.15;;;;;;;16.38;100.00;101538.53;5090900;28;20060;-63
2021/08/18 01:43:57;;;;;;;31.42;11.98;;;;;;;16.52;100.00;101537.00;5099949;27;20047;-62
2021/08/18 01:46:24;;;;;;;38.95;13.20;;;;;;;16.97;100.00;101540.09;5087654;27;20083;-62
2021/08/18 01:48:51;;;;;;;33.15;11.93;;;;;;;16.52;100.00;101544.97;5096511;28;20483;-62
2021/08/18 01:51:18;;;;;;;36.95;12.98;;;;;;;16.75;100.00;101531.84;5083626;28;20506;-61
2021/08/18 01:53:46;;;;;;;34.58;13.38;;;;;;;16.41;100.00;101532.09;5101256;28;20499;-61
2021/08/18 01:56:16;;;;;;;30.00;13.07;;;;;;;16.40;100.00;101531.25;5091178;27;20139;-62
2021/08/18 01:58:44;;;;;;;37.97;13.18;;;;;;;16.19;100.00;101528.28;5101951;28;20102;-61
2021/08/18 02:01:14;;;;;;;34.35;13.63;;;;;;;16.33;100.00;101532.09;5060769;28;20087;-62
2021/08/18 02:03:41;;;;;;;33.22;12.10;;;;;;;16.57;100.00;101533.88;5070525;28;20055;-62
2021/08/18 02:06:08;;;;;;;36.60;14.82;;;;;;;16.25;100.00;101526.78;5091660;28;20493;-62
2021/08/18 02:08:34;;;;;;;36.40;12.55;;;;;;;16.34;100.00;101529.25;5088583;28;20219;-60
2021/08/18 02:11:01;;;;;;;36.15;13.85;;;;;;;16.29;100.00;101522.81;5093890;28;20090;-62
2021/08/18 02:13:29;;;;;;;34.25;12.27;;;;;;;16.36;100.00;101526.47;5084855;28;20500;-62
2021/08/18 02:15:55;;;;;;;33.10;12.63;;;;;;;16.58;100.00;101538.16;5080811;28;20478;-62
2021/08/18 02:18:22;;;;;;;38.47;14.13;;;;;;;16.40;100.00;101533.06;5088743;28;20080;-59
2021/08/18 02:20:49;;;;;;;31.15;12.43;;;;;;;16.43;100.00;101527.44;5094874;28;20071;-61
2021/08/18 02:23:16;;;;;;;33.33;12.18;;;;;;;16.72;100.00;101534.84;5094559;28;20090;-61
2021/08/18 02:25:43;;;;;;;31.25;12.23;;;;;;;16.88;100.00;101539.31;5082061;27;20526;-62
2021/08/18 02:28:10;;;;;;;33.83;12.98;;;;;;;16.92;100.00;101540.59;5093041;27;20051;-62
2021/08/18 02:30:37;;;;;;;30.90;11.95;;;;;;;17.20;100.00;101535.69;5075432;28;20140;-62
2021/08/18 02:33:04;;;;;;;32.15;13.73;;;;;;;17.98;95.41;101531.25;5092993;28;20584;-60
2021/08/18 02:35:31;;;;;;;37.63;13.75;;;;;;;18.33;90.31;101528.16;5060992;28;21066;-61
2021/08/18 02:37:59;;;;;;;30.50;13.35;;;;;;;18.49;89.02;101538.63;5074325;28;20076;-62
2021/08/18 02:40:26;;;;;;;27.23;11.93;;;;;;;18.46;88.26;101541.63;5086602;28;20075;-62
2021/08/18 02:42:55;;;;;;;30.30;12.88;;;;;;;18.51;88.21;101543.75;5071049;28;20076;-62
2021/08/18 02:45:24;;;;;;;31.20;12.93;;;;;;;18.55;88.38;101529.94;5086495;27;20072;-62
2021/08/18 02:47:51;;;;;;;26.95;11.27;;;;;;;18.26;89.59;101525.38;5086826;28;20044;-60
2021/08/18 02:50:22;;;;;;;31.77;12.95;;;;;;;18.57;89.78;101522.59;5089271;28;20573;-60
2021/08/18 02:52:49;;;;;;;29.73;13.23;;;;;;;18.55;88.97;101524.59;5086560;28;20567;-61
2021/08/18 02:55:17;;;;;;;28.10;12.13;;;;;;;18.67;88.19;101518.84;5094359;28;20051;-60
2021/08/18 02:57:44;;;;;;;26.63;12.57;;;;;;;18.68;86.78;101515.16;5078538;28;20503;-57
2021/08/18 03:00:13;;;;;;;28.13;12.75;;;;;;;18.66;86.67;101520.69;5082540;28;20082;-62
2021/08/18 03:02:44;;;;;;;31.10;11.65;;;;;;;18.91;85.64;101517.78;5094198;28;20090;-62
2021/08/18 03:05:12;;;;;;;25.08;11.20;;;;;;;18.06;88.87;101519.75;5086749;28;20660;-62
2021/08/18 03:07:38;;;;;;;28.85;12.20;;;;;;;17.50;92.91;101524.44;5093647;28;20135;-62
2021/08/18 03:10:06;;;;;;;26.83;11.30;;;;;;;17.37;94.87;101522.38;5080034;28;20127;-61
2021/08/18 03:12:33;;;;;;;30.25;10.07;;;;;;;17.43;95.23;101524.31;5089823;28;20044;-62
2021/08/18 03:15:00;;;;;;;23.77;9.32;;;;;;;17.23;96.91;101521.28;5076780;28;20083;-62
2021/08/18 03:17:26;;;;;;;23.83;9.60;;;;;;;17.98;91.51;101518.00;5091510;28;20138;-62
2021/08/18 03:19:53;;;;;;;19.73;9.65;;;;;;;17.75;91.80;101517.97;5085856;28;20551;-62
2021/08/18 03:22:19;;;;;;;24.80;9.45;;;;;;;17.45;94.86;101521.50;5094016;28;20455;-62
2021/08/18 03:24:46;;;;;;;16.85;8.25;;;;;;;17.77;92.17;101520.44;5079299;28;20082;-62
2021/08/18 03:27:12;;;;;;;26.95;10.02;;;;;;;18.01;90.12;101524.78;5084314;27;20218;-62
2021/08/18 03:29:38;;;;;;;23.05;9.60;;;;;;;17.92;89.36;101521.38;5092442;28;20409;-62
2021/08/18 03:32:05;;;;;;;23.40;9.55;;;;;;;17.23;94.03;101526.59;5064796;28;20551;-61
2021/08/18 03:34:32;;;;;;;21.88;8.75;;;;;;;16.87;98.92;101528.88;5083835;28;20102;-61
2021/08/18 03:36:58;;;;;;;21.30;8.75;;;;;;;17.12;98.41;101525.13;5081491;28;20139;-62
2021/08/18 03:39:25;;;;;;;18.60;8.20;;;;;;;17.34;96.76;101520.88;5080466;28;20093;-61
2021/08/18 03:41:51;;;;;;;17.83;7.57;;;;;;;16.77;97.85;101529.84;5092217;28;20562;-58
2021/08/18 03:44:18;;;;;;;21.13;7.47;;;;;;;17.05;98.18;101526.81;5081022;27;20075;-60
2021/08/18 03:46:44;;;;;;;17.90;7.60;;;;;;;16.77;97.20;101529.84;5075358;28;20573;-59
2021/08/18 03:49:10;;;;;;;22.63;8.35;;;;;;;16.40;100.00;101531.25;5088822;28;20052;-62
2021/08/18 03:51:37;;;;;;;18.02;7.97;;;;;;;16.29;100.00;101533.41;5087463;28;21459;-62
2021/08/18 03:54:03;;;;;;;20.95;7.43;;;;;;;16.57;100.00;101544.47;5076915;28;20050;-62
2021/08/18 03:56:30;;;;;;;20.55;8.10;;;;;;;16.23;100.00;101531.44;5090242;28;20892;-62
2021/08/18 03:58:56;;;;;;;26.67;8.27;;;;;;;16.17;100.00;101530.25;5086608;28;20098;-62
2021/08/18 04:01:23;;;;;;;15.88;7.63;;;;;;;16.11;100.00;101528.28;5086092;28;20146;-61
2021/08/18 04:03:50;;;;;;;21.13;8.02;;;;;;;16.33;100.00;101530.28;5085459;28;20496;-61
2021/08/18 04:06:16;;;;;;;25.98;7.88;;;;;;;16.16;100.00;101523.34;5080887;28;20579;-62
2021/08/18 04:08:43;;;;;;;23.27;7.35;;;;;;;16.66;100.00;101524.09;5088442;28;20138;-60
2021/08/18 04:11:11;;;;;;;24.65;7.43;;;;;;;16.98;99.11;101531.16;5086930;28;20143;-62
2021/08/18 04:13:37;;;;;;;15.75;7.60;;;;;;;17.37;96.63;101528.50;5090608;28;20247;-62
2021/08/18 04:16:04;;;;;;;20.35;8.70;;;;;;;16.79;97.59;101517.25;5089582;28;20155;-62
2021/08/18 04:18:31;;;;;;;20.17;7.30;;;;;;;16.43;100.00;101527.44;5084167;28;20051;-62
2021/08/18 04:20:57;;;;;;;23.40;8.20;;;;;;;16.32;100.00;101520.66;5094780;28;20040;-62
2021/08/18 04:23:24;;;;;;;28.25;8.07;;;;;;;16.17;100.00;101524.97;5082765;28;20102;-62
2021/08/18 04:25:51;;;;;;;17.67;7.97;;;;;;;16.25;100.00;101514.41;5073205;28;20059;-60
2021/08/18 04:28:17;;;;;;;20.83;7.55;;;;;;;16.46;100.00;101524.44;5086918;27;20528;-62
2021/08/18 04:30:44;;;;;;;22.48;7.63;;;;;;;16.66;100.00;101522.28;5089122;28;20530;-61
2021/08/18 04:33:10;;;;;;;14.63;6.93;;;;;;;16.86;97.85;101532.53;5078671;28;20084;-62
2021/08/18 04:35:36;;;;;;;18.52;7.28;;;;;;;16.81;98.07;101538.28;5090855;28;20130;-62
2021/08/18 04:38:04;;;;;;;22.92;7.13;;;;;;;16.98;96.96;101536.44;5090174;28;20201;-62
2021/08/18 04:40:30;;;;;;;24.98;7.18;;;;;;;17.08;95.78;101541.56;5060395;28;20039;-62
2021/08/18 04:42:57;;;;;;;18.65;6.95;;;;;;;17.15;95.83;101539.84;5084234;28;20142;-60
2021/08/18 04:45:23;;;;;;;17.13;7.20;;;;;;;16.80;97.10;101539.28;5075962;28;20143;-62
2021/08/18 04:47:50;;;;;;;20.52;7.80;;;;;;;16.76;98.27;101538.00;5092308;28;20555;-62
2021/08/18 04:50:17;;;;;;;16.55;8.15;;;;;;;16.78;98.42;101528.88;5081359;28;20397;-62
2021/08/18 04:52:45;;;;;;;22.15;8.00;;;;;;;16.79;99.67;101532.34;5092583;28;20052;-62
2021/08/18 04:55:13;;;;;;;17.13;7.40;;;;;;;16.78;98.60;101530.69;5095497;28;20511;-62
2021/08/18 04:57:40;;;;;;;19.25;7.78;;;;;;;16.64;99.96;101534.88;5080897;28;20147;-62
2021/08/18 05:00:07;;;;;;;16.60;8.10;;;;;;;16.70;100.00;101528.03;5082826;28;20134;-62
2021/08/18 05:02:34;;;;;;;18.58;8.27;;;;;;;16.76;99.43;101533.50;5083473;28;20048;-62
2021/08/18 05:05:02;;;;;;;20.45;8.80;;;;;;;17.15;98.26;101530.09;5093400;28;20048;-62
2021/08/18 05:07:29;;;;;;;24.43;8.67;;;;;;;17.61;92.52;101532.00;5088638;28;20138;-62
2021/08/18 05:09:56;;;;;;;19.80;8.38;;;;;;;17.70;93.59;101528.31;5092287;28;20550;-62
2021/08/18 05:12:23;;;;;;;16.08;7.53;;;;;;;18.00;89.13;101523.13;5092771;28;20079;-60
2021/08/18 05:14:49;;;;;;;19.40;8.02;;;;;;;17.67;91.24;101522.50;5085399;28;20047;-62
2021/08/18 05:17:15;;;;;;;19.40;6.70;;;;;;;17.53;91.90;101524.91;5094835;28;20125;-62
2021/08/18 05:19:42;;;;;;;18.92;7.40;;;;;;;17.24;93.01;101538.81;5087570;28;20079;-62
2021/08/18 05:22:09;;;;;;;18.55;7.38;;;;;;;17.33;94.01;101534.31;5095464;28;20119;-62
2021/08/18 05:24:35;;;;;;;16.63;6.75;;;;;;;17.36;92.84;101526.81;5080620;28;20056;-62
2021/08/18 05:27:02;;;;;;;20.08;7.30;;;;;;;17.79;93.03;101518.44;5093035;27;20134;-63
2021/08/18 05:29:29;;;;;;;22.33;8.27;;;;;;;17.62;92.34;101527.50;5093364;28;20138;-62
2021/08/18 05:31:55;;;;;;;20.92;7.95;;;;;;;17.19;94.04;101522.63;5088959;28;20216;-62
2021/08/18 05:34:21;;;;;;;16.60;7.45;;;;;;;17.23;95.06;101531.88;5090669;28;20051;-62
2021/08/18 05:36:48;;;;;;;19.55;8.32;;;;;;;17.10;95.30;101526.31;5092237;28;20772;-61
2021/08/18 05:39:14;;;;;;;20.73;7.80;;;;;;;17.31;95.21;101537.13;5085121;28;20044;-62
2021/08/18 05:41:41;;;;;;;17.40;7.65;;;;;;;17.62;94.11;101527.50;5086332;27;20091;-62
2021/08/18 05:44:07;;;;;;;18.13;7.38;;;;;;;17.54;93.82;101526.59;5108277;27;20129;-62
2021/08/18 05:46:34;;;;;;;17.70;7.43;;;;;;;17.75;92.97;101528.56;5097879;28;20113;-62
2021/08/18 05:49:01;;;;;;;16.67;7.43;;;;;;;17.76;92.05;101522.28;5083616;28;20048;-62
2021/08/18 05:51:27;;;;;;;27.02;8.88;;;;;;;17.65;93.10;101537.78;5096099;28;20127;-62
2021/08/18 05:53:54;;;;;;;23.75;9.55;;;;;;;17.67;93.95;101535.78;5075603;28;20146;-62
2021/08/18 05:56:20;;;;;;;18.98;7.75;;;;;;;17.69;93.20;101529.28;5092392;28;20142;-62
2021/08/18 05:58:46;;;;;;;26.33;9.45;;;;;;;18.17;89.92;101531.81;5078141;28;20122;-62
2021/08/18 06:01:13;;;;;;;27.58;9.27;;;;;;;17.95;91.72;101533.44;5095989;28;20151;-62
2021/08/18 06:03:40;;;;;;;20.13;9.23;;;;;;;18.13;90.25;101528.66;5093655;28;20048;-62
2021/08/18 06:06:06;;;;;;;19.38;9.95;;;;;;;17.85;91.47;101530.22;5088500;28;20079;-62
2021/08/18 06:08:33;;;;;;;20.48;8.25;;;;;;;18.13;90.64;101531.31;5061306;28;20775;-63
2021/08/18 06:10:59;;;;;;;23.95;9.20;;;;;;;17.88;91.38;101529.88;5090939;28;20044;-61
2021/08/18 06:13:26;;;;;;;25.23;8.70;;;;;;;17.74;93.09;101542.03;5092762;28;20060;-62
2021/08/18 06:15:52;;;;;;;15.82;8.48;;;;;;;18.41;88.85;101535.25;5086118;28;20130;-62
2021/08/18 06:18:21;;;;;;;19.15;8.93;;;;;;;18.11;88.92;101532.50;5089514;28;20592;-62
2021/08/18 06:20:47;;;;;;;22.33;9.68;;;;;;;18.19;90.83;101535.09;5081804;28;20124;-62
2021/08/18 06:23:17;;;;;;;27.75;11.25;;;;;;;18.67;87.45;101540.94;5087996;28;20054;-62
2021/08/18 06:25:44;;;;;;;23.50;8.68;;;;;;;18.52;87.38;101537.44;5096580;27;20130;-60
2021/08/18 06:28:14;;;;;;;20.02;8.15;;;;;;;17.95;91.15;101536.94;5080800;28;20135;-62
2021/08/18 06:30:40;;;;;;;26.08;9.50;;;;;;;19.08;85.63;101542.34;5090314;28;20103;-63
2021/08/18 06:33:07;;;;;;;19.80;9.07;;;;;;;19.78;81.70;101542.72;5082275;28;20043;-62
2021/08/18 06:35:34;;;;;;;24.05;8.60;;;;;;;19.45;80.33;101541.34;5092567;28;20146;-62
2021/08/18 06:38:00;;;;;;;17.70;7.88;;;;;;;19.66;79.71;101539.72;5077621;28;20090;-62
2021/08/18 06:40:27;;;;;;;23.15;9.38;;;;;;;19.40;82.80;101537.59;5092738;28;20052;-62
2021/08/18 06:42:53;;;;;;;18.77;8.52;;;;;;;19.26;82.49;101540.09;5087319;27;20167;-62
2021/08/18 06:45:21;;;;;;;20.92;9.00;;;;;;;19.19;82.64;101536.56;5086149;28;20500;-62
2021/08/18 06:47:47;;;;;;;16.60;7.90;;;;;;;18.95;83.50;101537.66;5092740;28;20048;-62
2021/08/18 06:50:14;;;;;;;23.67;7.57;;;;;;;19.29;81.50;101547.72;5084987;28;20055;-62
2021/08/18 06:52:40;;;;;;;21.08;8.00;;;;;;;18.98;82.99;101544.47;5091246;28;20127;-62
2021/08/18 06:55:08;;;;;;;21.75;7.43;;;;;;;19.47;80.96;101542.00;5071205;28;20142;-62
2021/08/18 06:57:34;;;;;;;18.27;7.40;;;;;;;19.32;81.05;101546.50;5088487;28;20054;-62
2021/08/18 07:00:01;;;;;;;24.17;8.13;;;;;;;19.21;80.92;101541.66;5097186;28;20384;-63
2021/08/18 07:02:28;;;;;;;21.33;7.88;;;;;;;19.51;80.54;101537.94;5079742;28;20113;-63
2021/08/18 07:04:55;;;;;;;20.15;7.38;;;;;;;19.58;79.21;101545.16;5096442;28;20048;-62
2021/08/18 07:07:21;;;;;;;14.65;6.82;;;;;;;19.74;79.20;101551.09;5081783;28;20128;-61
2021/08/18 07:09:48;;;;;;;23.30;8.60;;;;;;;19.79;79.08;101544.41;5090165;28;20070;-62
2021/08/18 07:12:17;;;;;;;18.35;7.95;;;;;;;19.13;82.88;101553.22;5077742;28;20044;-62
2021/08/18 07:14:44;;;;;;;15.05;6.32;;;;;;;19.42;79.49;101548.88;5087539;28;20071;-62
2021/08/18 07:17:10;;;;;;;21.60;7.10;;;;;;;19.92;77.20;101548.00;5081307;28;20463;-62
2021/08/18 07:19:37;;;;;;;19.10;7.25;;;;;;;20.17;76.56;101549.44;5090093;28;20071;-62
2021/08/18 07:22:03;;;;;;;14.27;6.25;;;;;;;19.95;76.42;101552.13;5092467;28;20126;-62
2021/08/18 07:24:31;;;;;;;15.13;6.75;;;;;;;19.94;77.54;101553.16;5080272;28;20082;-60
2021/08/18 07:26:58;;;;;;;17.17;7.20;;;;;;;19.92;77.44;101553.31;5083383;27;20082;-61
2021/08/18 07:29:25;;;;;;;13.55;6.85;;;;;;;19.95;78.76;101552.97;5080699;28;20079;-62
2021/08/18 07:31:51;;;;;;;14.93;7.20;;;;;;;20.19;77.96;101550.91;5070022;28;20135;-62
2021/08/18 07:34:19;;;;;;;16.05;7.63;;;;;;;20.13;77.63;101541.00;5086905;28;20089;-62
2021/08/18 07:36:45;;;;;;;16.08;6.95;;;;;;;20.23;76.71;101548.66;5094247;28;20130;-61
2021/08/18 07:39:12;;;;;;;19.27;7.43;;;;;;;20.22;77.98;101534.53;5092006;28;20059;-60
2021/08/18 07:41:38;;;;;;;17.17;7.18;;;;;;;20.26;76.44;101542.97;5085589;27;20154;-59
2021/08/18 07:44:05;;;;;;;18.33;7.53;;;;;;;20.54;74.90;101540.28;5087719;28;21033;-62
2021/08/18 07:46:31;;;;;;;19.70;7.43;;;;;;;20.82;73.67;101553.63;5085114;28;20062;-62
2021/08/18 07:48:58;;;;;;;19.20;7.53;;;;;;;20.82;73.46;101550.97;5088252;28;20419;-62
2021/08/18 07:51:28;;;;;;;18.08;6.38;;;;;;;20.86;72.77;101560.22;5081030;28;20138;-62
2021/08/18 07:53:54;;;;;;;17.50;7.03;;;;;;;20.81;73.08;101554.63;5080819;28;20058;-62
2021/08/18 07:56:21;;;;;;;20.65;7.63;;;;;;;20.90;71.16;101553.47;5090116;28;20571;-62
2021/08/18 07:58:47;;;;;;;16.52;7.55;;;;;;;20.98;71.42;101544.47;5069000;28;20560;-62
2021/08/18 08:01:32;;;;;;;17.38;7.20;;;;;;;21.19;71.37;101548.03;5089105;28;20055;-62
2021/08/18 08:03:59;;;;;;;17.95;7.20;;;;;;;20.98;71.17;101549.00;5087047;28;20371;-62
2021/08/18 08:06:25;;;;;;;16.55;7.20;;;;;;;20.97;72.19;101547.34;5089718;28;20095;-62
2021/08/18 08:08:52;;;;;;;14.18;6.80;;;;;;;21.13;72.08;101550.50;5084005;28;20086;-61
2021/08/18 08:11:19;;;;;;;17.38;7.22;;;;;;;21.09;73.10;101554.59;5086826;28;20056;-62
2021/08/18 08:13:45;;;;;;;18.27;7.35;;;;;;;20.60;73.42;101549.38;5087906;28;20515;-61
2021/08/18 08:16:12;;;;;;;19.17;7.20;;;;;;;20.71;74.29;101548.84;5085113;28;20055;-60
2021/08/18 08:18:39;;;;;;;13.18;6.47;;;;;;;20.77;71.85;101549.91;5091930;28;20074;-60
2021/08/18 08:21:05;;;;;;;16.80;6.55;;;;;;;20.66;72.80;101552.09;5079431;28;20044;-61
2021/08/18 08:23:32;;;;;;;13.38;6.47;;;;;;;20.66;74.15;101545.94;5082848;28;20553;-59
2021/08/18 08:25:58;;;;;;;16.50;6.82;;;;;;;20.66;73.40;101551.25;5096778;27;20142;-59
2021/08/18 08:28:25;;;;;;;17.00;7.28;;;;;;;20.69;73.19;101548.22;5092491;28;20095;-62
2021/08/18 08:30:51;;;;;;;15.20;7.30;;;;;;;20.94;73.01;101553.91;5091940;28;20087;-62
2021/08/18 08:33:18;;;;;;;16.55;7.50;;;;;;;20.88;74.76;101560.03;5075849;28;20581;-61
2021/08/18 08:35:45;;;;;;;17.25;7.47;;;;;;;20.66;73.98;101560.09;5087360;28;20482;-60
2021/08/18 08:38:13;;;;;;;16.40;6.90;;;;;;;20.88;74.96;101560.84;5077786;28;20083;-59
2021/08/18 08:40:42;;;;;;;15.15;8.73;;;;;;;20.86;74.45;101549.56;5100201;27;20140;-61
2021/08/18 08:43:09;;;;;;;19.38;8.55;;;;;;;21.06;74.61;101549.66;5081992;28;20048;-61
2021/08/18 08:45:35;;;;;;;15.73;8.60;;;;;;;20.94;75.21;101553.91;5101123;28;20083;-57
2021/08/18 08:48:02;;;;;;;21.10;10.23;;;;;;;21.06;74.32;101548.81;5098860;28;20082;-60
2021/08/18 08:50:30;;;;;;;21.85;10.07;;;;;;;21.12;74.38;101550.69;5080015;28;20135;-59
2021/08/18 08:52:56;;;;;;;28.87;11.40;;;;;;;21.35;74.18;101558.38;5093853;28;20382;-61
2021/08/18 08:55:23;;;;;;;22.70;11.18;;;;;;;21.39;73.63;101554.28;5088598;28;20371;-61
2021/08/18 08:57:52;;;;;;;18.15;11.10;;;;;;;21.40;73.63;101557.78;5091728;28;20502;-61
2021/08/18 09:00:21;;;;;;;28.98;13.25;;;;;;;21.43;74.38;101552.06;5087933;28;20555;-61
2021/08/18 09:02:47;;;;;;;26.52;13.25;;;;;;;21.36;75.50;101552.00;5087812;28;20051;-61
2021/08/18 09:05:27;;;;;;;23.23;12.32;;;;;;;21.35;76.78;101553.06;5085916;28;20491;-60
2021/08/18 09:07:56;;;;;;;28.75;11.93;;;;;;;21.18;75.90;101541.91;5099020;28;20051;-61
2021/08/18 09:10:23;;;;;;;24.45;12.27;;;;;;;21.29;76.14;101543.19;5096095;28;20511;-61
2021/08/18 09:12:50;;;;;;;20.00;12.23;;;;;;;21.24;76.17;101551.75;5088521;28;20091;-60
2021/08/18 09:15:19;;;;;;;25.92;11.50;;;;;;;21.16;74.88;101546.59;5098914;28;20048;-60
2021/08/18 09:17:48;;;;;;;28.10;12.10;;;;;;;21.39;76.19;101556.16;5082195;28;20386;-60
2021/08/18 09:20:29;;;;;;;23.52;11.02;;;;;;;21.37;74.83;101556.34;5097924;28;20500;-61
2021/08/18 09:22:58;;;;;;;30.40;11.18;;;;;;;21.05;76.29;101547.16;5084006;28;20178;-61
2021/08/18 09:25:35;;;;;;;17.52;11.02;;;;;;;20.99;74.97;101546.09;5099212;27;20480;-59
2021/08/18 09:28:04;;;;;;;25.52;12.25;;;;;;;20.93;76.60;101546.91;5071174;28;20079;-59
2021/08/18 09:30:34;;;;;;;23.88;11.40;;;;;;;20.94;77.01;101545.91;5091924;28;20083;-60
2021/08/18 09:33:10;;;;;;;23.05;13.05;;;;;;;21.03;76.87;101534.06;5069304;28;20048;-60
2021/08/18 09:35:37;;;;;;;23.20;12.95;;;;;;;21.41;74.86;101535.41;5088076;28;20486;-59
2021/08/18 09:38:06;;;;;;;25.17;13.25;;;;;;;21.55;74.09;101538.97;5094582;28;20051;-61
2021/08/18 09:40:45;;;;;;;29.95;15.60;;;;;;;21.52;74.10;101533.03;5102630;27;20059;-61
2021/08/18 09:43:16;;;;;;;31.25;16.92;;;;;;;21.59;73.34;101532.22;5090665;28;20056;-61
2021/08/18 09:45:47;;;;;;;28.08;17.02;;;;;;;21.55;73.34;101518.44;5084832;28;20051;-58
2021/08/18 09:48:18;;;;;;;28.20;17.75;;;;;;;21.63;73.78;101515.56;5086717;28;20059;-60
2021/08/18 09:51:06;;;;;;;28.38;17.40;;;;;;;21.38;75.13;101533.13;5095959;28;20528;-61
2021/08/18 09:53:37;;;;;;;32.72;18.00;;;;;;;21.45;73.57;101521.50;5097264;28;20134;-60
2021/08/18 09:56:12;;;;;;;30.52;17.92;;;;;;;21.43;73.70;101512.88;5086225;28;20140;-60
2021/08/18 09:58:51;;;;;;;29.17;18.80;;;;;;;21.92;73.34;101516.22;5091165;28;20470;-60
2021/08/18 10:01:18;;;;;;;30.17;19.05;;;;;;;22.25;72.28;101524.28;5083662;28;20075;-61
2021/08/18 10:03:50;;;;;;;;;;;;;;;21.80;72.39;101517.88;5084750;28;20124;-60
2021/08/18 10:06:17;;;;;;;42.05;24.33;;;;;;;21.73;70.98;101509.84;5096741;28;19924;-58
2021/08/18 10:08:45;;;;;;;49.95;25.35;;;;;;;21.92;70.38;101521.56;5092138;28;20052;-61
2021/08/18 10:11:15;;;;;;;46.05;26.58;;;;;;;21.86;70.09;101509.03;5090216;28;20141;-62
2021/08/18 10:13:42;;;;;;;44.33;26.48;;;;;;;21.92;70.91;101505.56;5082994;28;20075;-63
2021/08/18 10:16:09;;;;;;;34.00;21.90;;;;;;;21.91;70.99;101510.06;5089763;28;20515;-62
2021/08/18 10:18:36;;;;;;;39.22;24.92;;;;;;;22.03;70.42;101504.94;5087373;28;20435;-62
2021/08/18 10:21:09;;;;;;;38.72;21.80;;;;;;;22.22;69.61;101499.78;5083010;28;20083;-61
2021/08/18 10:24:04;;;;;;;36.63;21.60;;;;;;;22.48;70.29;101505.13;5093443;28;20554;-61
2021/08/18 10:26:34;;;;;;;36.35;21.67;;;;;;;22.24;69.15;101503.91;5078694;28;20485;-62
2021/08/18 10:29:19;;;;;;;31.60;19.30;;;;;;;21.99;67.49;101506.34;5091404;28;20329;-62
2021/08/18 10:31:47;;;;;;;31.00;19.38;;;;;;;22.30;68.67;101497.72;5078229;28;20218;-62
2021/08/18 10:34:25;;;;;;;29.50;18.55;;;;;;;22.20;67.91;101504.50;5095269;28;20131;-63
2021/08/18 10:36:52;;;;;;;;;;;;;;;21.88;69.02;101498.97;5078628;28;20131;-62
2021/08/18 10:39:19;;;;;;;27.85;13.85;;;;;;;21.99;68.45;101497.53;5095853;28;19962;-59
2021/08/18 10:42:04;;;;;;;28.20;15.98;;;;;;;21.73;67.82;101497.31;5090442;27;20227;-62
2021/08/18 10:44:36;;;;;;;25.20;15.50;;;;;;;21.68;70.09;101513.13;5091399;28;20207;-61
2021/08/18 10:47:33;;;;;;;23.58;15.50;;;;;;;21.67;68.70;101508.81;5088923;28;20056;-61
2021/08/18 10:50:12;;;;;;;29.50;15.35;;;;;;;21.91;69.02;101496.72;5094190;28;20083;-57
2021/08/18 10:52:40;;;;;;;26.73;15.45;;;;;;;22.21;69.25;101500.78;5091425;28;21038;-62
2021/08/18 10:55:23;;;;;;;26.85;15.40;;;;;;;22.00;68.54;101502.66;5085097;28;20474;-61
2021/08/18 10:57:58;;;;;;;27.95;15.50;;;;;;;22.02;67.81;101500.59;5088346;28;20067;-62
2021/08/18 11:00:44;;;;;;;17.48;11.00;;;;;;;21.95;64.94;101507.78;5067755;28;20508;-61
2021/08/18 11:03:16;;;;;;;14.43;8.05;;;;;;;21.99;65.83;101514.38;5094078;28;20053;-58
2021/08/18 11:05:48;;;;;;;13.02;7.50;;;;;;;22.06;66.20;101509.03;5081455;28;20083;-61
2021/08/18 11:08:40;;;;;;;13.63;8.65;;;;;;;21.86;67.98;101514.38;5087949;28;20142;-60
2021/08/18 11:11:07;;;;;;;17.60;9.75;;;;;;;21.45;70.74;101507.34;5079685;27;20418;-61
2021/08/18 11:13:45;;;;;;;15.30;9.60;;;;;;;21.23;71.94;101512.78;5096100;28;20538;-61
2021/08/18 11:16:27;;;;;;;19.75;11.50;;;;;;;21.29;71.55;101511.97;5081690;28;20168;-58